Time,TemperatureF,DewpointF,PressureIn,WindDirection,WindDirectionDegrees,WindSpeedMPH,WindSpeedGustMPH,Humidity,HourlyPrecipIn,Conditions,Clouds,dailyrainin,SoftwareType,DateUTC
2013-04-03 00:01:00,48.9,30.1,29.26,North,355,2.0,6.0,48,0.00,,,0.00,Wunderground v.1.15,2013-04-03 04:01:00,
2013-04-03 00:11:00,48.8,30.0,29.26,North,360,3.0,3.0,48,0.00,,,0.00,Wunderground v.1.15,2013-04-03 04:11:00,
2013-04-03 00:17:00,48.7,31.0,29.26,North,360,2.0,7.0,50,0.00,,,0.00,weatherlink.com 1.10,2013-04-03 04:17:00,
2013-04-03 00:26:00,48.6,30.8,29.27,NE,40,3.0,3.0,50,0.00,,,0.00,Wunderground v.1.15,2013-04-03 04:26:00,
2013-04-03 00:31:00,48.5,31.2,29.27,North,360,3.0,6.0,51,0.00,,,0.00,Wunderground v.1.15,2013-04-03 04:31:00,
2013-04-03 00:41:00,48.3,31.9,29.26,North,360,2.0,6.0,53,0.00,,,0.00,Wunderground v.1.15,2013-04-03 04:41:00,
2013-04-03 00:47:00,48.1,31.0,29.26,NNE,13,4.0,6.0,53,0.00,,,0.00,weatherlink.com 1.10,2013-04-03 04:47:00,
2013-04-03 00:56:00,48.0,31.7,29.26,NNW,332,3.0,3.0,53,0.00,,,0.00,Wunderground v.1.15,2013-04-03 04:56:00,
2013-04-03 01:03:00,47.9,31.0,29.27,NE,43,2.0,4.0,52,0.00,,,0.00,weatherlink.com 1.10,2013-04-03 05:03:00,
2013-04-03 01:11:00,47.8,31.5,29.27,North,5,2.0,3.0,53,0.00,,,0.00,Wunderground v.1.15,2013-04-03 05:11:00,
2013-04-03 01:18:00,47.7,31.0,29.27,North,360,4.0,6.0,53,0.00,,,0.00,weatherlink.com 1.10,2013-04-03 05:18:00,
2013-04-03 01:26:00,47.6,31.3,29.26,NNW,348,3.0,3.0,53,0.00,,,0.00,Wunderground v.1.15,2013-04-03 05:26:00,
2013-04-03 01:32:00,47.5,31.0,29.25,West,275,1.0,6.0,53,0.00,,,0.00,weatherlink.com 1.10,2013-04-03 05:32:00,
2013-04-03 01:41:00,47.4,31.6,29.26,North,9,3.0,8.0,54,0.00,,,0.00,Wunderground v.1.15,2013-04-03 05:41:00,
2013-04-03 01:47:00,47.3,31.0,29.26,NNE,15,1.0,9.0,54,0.00,,,0.00,weatherlink.com 1.10,2013-04-03 05:47:00,
2013-04-03 01:56:00,47.2,30.5,29.25,North,5,3.0,3.0,52,0.00,,,0.00,Wunderground v.1.15,2013-04-03 05:56:00,
2013-04-03 02:02:00,47.1,31.0,29.25,North,360,3.0,7.0,53,0.00,,,0.00,weatherlink.com 1.10,2013-04-03 06:02:00,
2013-04-03 02:10:00,47.0,30.3,29.25,North,360,2.0,2.0,52,0.00,,,0.00,Wunderground v.1.15,2013-04-03 06:10:00,
2013-04-03 02:17:00,46.9,30.0,29.24,North,350,1.0,7.0,53,0.00,,,0.00,weatherlink.com 1.10,2013-04-03 06:17:00,
2013-04-03 02:25:00,46.7,30.5,29.24,NNW,338,3.0,3.0,53,0.00,,,0.00,Wunderground v.1.15,2013-04-03 06:25:00,
2013-04-03 02:33:00,46.5,30.0,29.24,North,355,4.0,7.0,53,0.00,,,0.00,weatherlink.com 1.10,2013-04-03 06:33:00,
2013-04-03 02:40:00,46.4,30.2,29.24,NNE,22,2.0,6.0,53,0.00,,,0.00,Wunderground v.1.15,2013-04-03 06:40:00,
2013-04-03 02:47:00,46.2,31.0,29.25,NNW,344,1.0,6.0,55,0.00,,,0.00,weatherlink.com 1.10,2013-04-03 06:47:00,
2013-04-03 03:01:00,46.1,30.8,29.25,NNW,348,2.0,2.0,55,0.00,,,0.00,Wunderground v.1.15,2013-04-03 07:01:00,
2013-04-03 03:06:00,46.0,30.3,29.25,NE,55,2.0,2.0,54,0.00,,,0.00,Wunderground v.1.15,2013-04-03 07:06:00,
2013-04-03 03:16:00,45.8,29.6,29.24,NNW,340,2.0,4.0,53,0.00,,,0.00,Wunderground v.1.15,2013-04-03 07:16:00,
2013-04-03 03:26:00,45.5,29.8,29.24,North,360,3.0,3.0,54,0.00,,,0.00,Wunderground v.1.15,2013-04-03 07:26:00,
2013-04-03 03:33:00,45.2,29.0,29.24,NNW,329,2.0,5.0,54,0.00,,,0.00,weatherlink.com 1.10,2013-04-03 07:33:00,
2013-04-03 03:41:00,44.9,29.2,29.24,NNE,25,3.0,8.0,54,0.00,,,0.00,Wunderground v.1.15,2013-04-03 07:41:00,
2013-04-03 03:46:00,44.7,29.1,29.23,NNW,329,2.0,8.0,54,0.00,,,0.00,Wunderground v.1.15,2013-04-03 07:46:00,
2013-04-03 03:51:00,44.5,29.3,29.22,North,360,3.0,8.0,55,0.00,,,0.00,Wunderground v.1.15,2013-04-03 07:51:00,
2013-04-03 03:56:00,44.2,29.0,29.22,North,360,2.0,2.0,55,0.00,,,0.00,Wunderground v.1.15,2013-04-03 07:56:00,
2013-04-03 04:03:00,44.0,29.0,29.22,North,355,1.0,4.0,55,0.00,,,0.00,weatherlink.com 1.10,2013-04-03 08:03:00,
2013-04-03 04:11:00,43.7,29.0,29.22,North,360,2.0,3.0,56,0.00,,,0.00,Wunderground v.1.15,2013-04-03 08:11:00,
2013-04-03 04:18:00,43.4,29.0,29.21,NNE,22,2.0,4.0,57,0.00,,,0.00,weatherlink.com 1.10,2013-04-03 08:18:00,
2013-04-03 04:26:00,43.3,28.6,29.20,North,360,3.0,3.0,56,0.00,,,0.00,Wunderground v.1.15,2013-04-03 08:26:00,
2013-04-03 04:33:00,43.1,29.0,29.20,North,5,4.0,6.0,57,0.00,,,0.00,weatherlink.com 1.10,2013-04-03 08:33:00,
2013-04-03 04:41:00,42.9,29.1,29.19,NNE,28,3.0,7.0,58,0.00,,,0.00,Wunderground v.1.15,2013-04-03 08:41:00,
2013-04-03 04:48:00,42.8,28.0,29.20,NE,54,3.0,7.0,57,0.00,,,0.00,weatherlink.com 1.10,2013-04-03 08:48:00,
2013-04-03 04:56:00,42.8,28.6,29.21,NNW,341,2.0,2.0,57,0.00,,,0.00,Wunderground v.1.15,2013-04-03 08:56:00,
2013-04-03 05:03:00,42.7,28.0,29.22,North,351,3.0,8.0,56,0.00,,,0.00,weatherlink.com 1.10,2013-04-03 09:03:00,
2013-04-03 05:11:00,42.8,28.2,29.22,NW,325,2.0,3.0,56,0.00,,,0.00,Wunderground v.1.15,2013-04-03 09:11:00,
2013-04-03 05:16:00,42.6,28.0,29.21,North,355,2.0,3.0,56,0.00,,,0.00,Wunderground v.1.15,2013-04-03 09:16:00,
2013-04-03 05:31:00,42.3,27.3,29.22,NNE,14,2.0,6.0,55,0.00,,,0.00,Wunderground v.1.15,2013-04-03 09:31:00,
2013-04-03 05:40:00,42.0,27.4,29.22,NNE,17,2.0,6.0,56,0.00,,,0.00,Wunderground v.1.15,2013-04-03 09:40:00,
2013-04-03 05:48:00,41.8,27.0,29.21,NW,319,3.0,6.0,56,0.00,,,0.00,weatherlink.com 1.10,2013-04-03 09:48:00,
2013-04-03 05:56:00,41.6,26.6,29.22,North,5,2.0,2.0,55,0.00,,,0.00,Wunderground v.1.15,2013-04-03 09:56:00,
2013-04-03 06:04:00,41.5,27.0,29.23,North,5,0.0,2.0,56,0.00,,,0.00,weatherlink.com 1.10,2013-04-03 10:04:00,
2013-04-03 06:10:00,41.4,26.9,29.23,ENE,74,1.0,2.0,56,0.00,,,0.00,Wunderground v.1.15,2013-04-03 10:10:00,
2013-04-03 06:18:00,41.1,28.0,29.23,NNE,32,3.0,3.0,59,0.00,,,0.00,weatherlink.com 1.10,2013-04-03 10:18:00,
2013-04-03 06:25:00,40.9,26.4,29.24,North,350,1.0,1.0,56,0.00,,,0.00,Wunderground v.1.15,2013-04-03 10:25:00,
2013-04-03 06:33:00,40.7,26.0,29.24,North,360,3.0,5.0,56,0.00,,,0.00,weatherlink.com 1.10,2013-04-03 10:33:00,
2013-04-03 06:40:00,40.7,25.8,29.25,NNW,348,2.0,8.0,55,0.00,,,0.00,Wunderground v.1.15,2013-04-03 10:40:00,
2013-04-03 06:49:00,40.7,25.0,29.25,NNE,30,1.0,5.0,55,0.00,,,0.00,weatherlink.com 1.10,2013-04-03 10:49:00,
2013-04-03 06:56:00,40.8,26.3,29.25,NNE,13,1.0,1.0,56,0.00,,,0.00,Wunderground v.1.15,2013-04-03 10:56:00,
2013-04-03 07:01:00,40.8,25.9,29.25,NNE,13,1.0,3.0,55,0.00,,,0.00,Wunderground v.1.15,2013-04-03 11:01:00,
2013-04-03 07:06:00,41.0,26.5,29.25,NNE,13,2.0,2.0,56,0.00,,,0.00,Wunderground v.1.15,2013-04-03 11:06:00,
2013-04-03 07:16:00,41.1,26.1,29.25,NNW,328,1.0,2.0,55,0.00,,,0.00,Wunderground v.1.15,2013-04-03 11:16:00,
2013-04-03 07:26:00,41.4,26.4,29.26,NE,34,2.0,3.0,55,0.00,,,0.00,Wunderground v.1.15,2013-04-03 11:26:00,
2013-04-03 07:34:00,41.5,27.0,29.26,North,355,0.0,4.0,56,0.00,,,0.00,weatherlink.com 1.10,2013-04-03 11:34:00,
2013-04-03 07:46:00,41.8,26.4,29.27,NE,44,2.0,2.0,54,0.00,,,0.00,Wunderground v.1.15,2013-04-03 11:46:00,
2013-04-03 07:56:00,41.9,26.9,29.27,North,349,2.0,3.0,55,0.00,,,0.00,Wunderground v.1.15,2013-04-03 11:56:00,
2013-04-03 08:04:00,42.1,26.0,29.27,North,360,4.0,6.0,53,0.00,,,0.00,weatherlink.com 1.10,2013-04-03 12:04:00,
2013-04-03 08:11:00,42.3,26.4,29.27,NNW,333,3.0,3.0,53,0.00,,,0.00,Wunderground v.1.15,2013-04-03 12:11:00,
2013-04-03 08:16:00,42.4,26.5,29.27,North,350,3.0,4.0,53,0.00,,,0.00,Wunderground v.1.15,2013-04-03 12:16:00,
2013-04-03 08:26:00,42.7,25.8,29.27,NNE,17,3.0,3.0,51,0.00,,,0.00,Wunderground v.1.15,2013-04-03 12:26:00,
2013-04-03 08:31:00,43.0,25.6,29.27,NNW,343,3.0,5.0,50,0.00,,,0.00,Wunderground v.1.15,2013-04-03 12:31:00,
2013-04-03 08:41:00,43.6,25.7,29.28,NNW,330,4.0,4.0,49,0.00,,,0.00,Wunderground v.1.15,2013-04-03 12:41:00,
2013-04-03 08:49:00,44.0,25.0,29.28,North,360,2.0,7.0,48,0.00,,,0.00,weatherlink.com 1.10,2013-04-03 12:49:00,
2013-04-03 08:56:00,44.4,25.4,29.28,North,5,3.0,3.0,47,0.00,,,0.00,Wunderground v.1.15,2013-04-03 12:56:00,
2013-04-03 09:04:00,44.8,24.0,29.28,NNW,333,5.0,7.0,45,0.00,,,0.00,weatherlink.com 1.10,2013-04-03 13:04:00,
2013-04-03 09:11:00,45.2,25.1,29.27,NNE,30,4.0,4.0,45,0.00,,,0.00,Wunderground v.1.15,2013-04-03 13:11:00,
2013-04-03 09:20:00,45.4,24.0,29.27,NNW,342,6.0,13.0,44,0.00,,,0.00,weatherlink.com 1.10,2013-04-03 13:20:00,
2013-04-03 09:34:00,46.2,25.0,29.27,NNW,333,4.0,11.0,44,0.00,,,0.00,weatherlink.com 1.10,2013-04-03 13:34:00,
2013-04-03 09:40:00,46.5,24.0,29.28,NNW,341,4.0,10.0,41,0.00,,,0.00,Wunderground v.1.15,2013-04-03 13:40:00,
2013-04-03 09:49:00,46.8,25.0,29.28,NW,323,6.0,9.0,42,0.00,,,0.00,weatherlink.com 1.10,2013-04-03 13:49:00,
2013-04-03 09:56:00,47.2,24.1,29.27,NNW,339,4.0,5.0,40,0.00,,,0.00,Wunderground v.1.15,2013-04-03 13:56:00,
2013-04-03 10:05:00,47.5,25.0,29.27,WNW,292,3.0,11.0,41,0.00,,,0.00,weatherlink.com 1.10,2013-04-03 14:05:00,
2013-04-03 10:10:00,47.9,26.5,29.27,NNW,336,4.0,4.0,43,0.00,,,0.00,Wunderground v.1.15,2013-04-03 14:10:00,
2013-04-03 10:19:00,48.6,26.0,29.28,NE,49,3.0,12.0,41,0.00,,,0.00,weatherlink.com 1.10,2013-04-03 14:19:00,
2013-04-03 10:25:00,49.0,25.7,29.28,NNW,337,3.0,5.0,40,0.00,,,0.00,Wunderground v.1.15,2013-04-03 14:25:00,
2013-04-03 10:35:00,49.5,26.0,29.28,North,11,1.0,13.0,40,0.00,,,0.00,weatherlink.com 1.10,2013-04-03 14:35:00,
2013-04-03 10:40:00,50.0,25.4,29.28,NW,319,4.0,13.0,38,0.00,,,0.00,Wunderground v.1.15,2013-04-03 14:40:00,
2013-04-03 10:45:00,50.4,25.7,29.28,WNW,299,4.0,13.0,38,0.00,,,0.00,Wunderground v.1.15,2013-04-03 14:45:00,
2013-04-03 10:57:00,51.2,26.4,29.29,ENE,63,4.0,5.0,38,0.00,,,0.00,Wunderground v.1.15,2013-04-03 14:57:00,
2013-04-03 11:04:00,51.7,27.0,29.28,NNE,26,6.0,11.0,38,0.00,,,0.00,weatherlink.com 1.10,2013-04-03 15:04:00,
2013-04-03 11:11:00,52.3,25.4,29.28,WNW,300,4.0,5.0,35,0.00,,,0.00,Wunderground v.1.15,2013-04-03 15:11:00,
2013-04-03 11:19:00,53.0,26.0,29.28,NW,321,5.0,11.0,35,0.00,,,0.00,weatherlink.com 1.10,2013-04-03 15:19:00,
2013-04-03 11:26:00,53.4,25.7,29.28,NNW,331,3.0,3.0,34,0.00,,,0.00,Wunderground v.1.15,2013-04-03 15:26:00,
2013-04-03 11:35:00,53.7,26.0,29.29,NNW,330,4.0,7.0,35,0.00,,,0.00,weatherlink.com 1.10,2013-04-03 15:35:00,
2013-04-03 11:41:00,53.9,26.8,29.28,ENE,74,4.0,4.0,35,0.00,,,0.00,Wunderground v.1.15,2013-04-03 15:41:00,
2013-04-03 11:50:00,54.2,29.0,29.29,SE,126,3.0,9.0,38,0.00,,,0.00,weatherlink.com 1.10,2013-04-03 15:50:00,
2013-04-03 11:56:00,54.6,28.2,29.28,WNW,288,4.0,7.0,36,0.00,,,0.00,Wunderground v.1.15,2013-04-03 15:56:00,
2013-04-03 12:05:00,55.3,28.0,29.27,NNW,344,10.0,11.0,35,0.00,,,0.00,weatherlink.com 1.10,2013-04-03 16:05:00,
2013-04-03 12:11:00,55.7,29.1,29.27,North,11,5.0,5.0,36,0.00,,,0.00,Wunderground v.1.15,2013-04-03 16:11:00,
2013-04-03 12:16:00,56.0,28.0,29.27,North,5,4.0,4.0,34,0.00,,,0.00,Wunderground v.1.15,2013-04-03 16:16:00,
2013-04-03 12:31:00,56.5,28.4,29.28,NNW,331,4.0,4.0,34,0.00,,,0.00,Wunderground v.1.15,2013-04-03 16:31:00,
2013-04-03 12:41:00,56.5,29.1,29.27,NNW,331,4.0,11.0,35,0.00,,,0.00,Wunderground v.1.15,2013-04-03 16:41:00,
2013-04-03 12:50:00,56.6,29.0,29.27,NNW,338,3.0,10.0,35,0.00,,,0.00,weatherlink.com 1.10,2013-04-03 16:50:00,
2013-04-03 12:56:00,57.1,30.4,29.27,ESE,104,3.0,5.0,36,0.00,,,0.00,Wunderground v.1.15,2013-04-03 16:56:00,
2013-04-03 13:05:00,57.6,30.0,29.26,North,351,7.0,12.0,35,0.00,,,0.00,weatherlink.com 1.10,2013-04-03 17:05:00,
2013-04-03 13:11:00,57.6,27.9,29.26,NNE,22,3.0,8.0,32,0.00,,,0.00,Wunderground v.1.15,2013-04-03 17:11:00,
2013-04-03 13:20:00,57.4,28.0,29.25,NE,43,3.0,10.0,32,0.00,,,0.00,weatherlink.com 1.10,2013-04-03 17:20:00,
2013-04-03 13:35:00,57.9,30.0,29.25,NE,35,4.0,12.0,35,0.00,,,0.00,weatherlink.com 1.10,2013-04-03 17:35:00,
2013-04-03 13:41:00,58.2,28.5,29.25,SE,134,4.0,12.0,32,0.00,,,0.00,Wunderground v.1.15,2013-04-03 17:41:00,
2013-04-03 13:50:00,58.1,28.0,29.25,NE,55,2.0,6.0,32,0.00,,,0.00,weatherlink.com 1.10,2013-04-03 17:50:00,
2013-04-03 14:01:00,58.1,28.4,29.26,NNE,22,3.0,3.0,32,0.00,,,0.00,Wunderground v.1.15,2013-04-03 18:01:00,
2013-04-03 14:06:00,58.3,27.0,29.26,NE,41,2.0,6.0,30,0.00,,,0.00,weatherlink.com 1.10,2013-04-03 18:06:00,
2013-04-03 14:15:00,58.3,27.8,29.26,NE,42,2.0,2.0,31,0.00,,,0.00,Wunderground v.1.15,2013-04-03 18:15:00,
2013-04-03 14:21:00,58.1,27.0,29.26,East,80,3.0,7.0,30,0.00,,,0.00,weatherlink.com 1.10,2013-04-03 18:21:00,
2013-04-03 14:30:00,58.0,27.5,29.26,North,360,2.0,12.0,31,0.00,,,0.00,Wunderground v.1.15,2013-04-03 18:30:00,
2013-04-03 14:36:00,58.0,27.0,29.26,North,355,1.0,10.0,30,0.00,,,0.00,weatherlink.com 1.10,2013-04-03 18:36:00,
2013-04-03 14:45:00,57.9,27.4,29.26,NNE,17,3.0,12.0,31,0.00,,,0.00,Wunderground v.1.15,2013-04-03 18:45:00,
2013-04-03 14:51:00,58.0,29.0,29.26,North,360,0.0,8.0,33,0.00,,,0.00,weatherlink.com 1.10,2013-04-03 18:51:00,
2013-04-03 14:56:00,58.1,29.8,29.26,WNW,296,3.0,3.0,34,0.00,,,0.00,Wunderground v.1.15,2013-04-03 18:56:00,
2013-04-03 15:05:00,58.4,30.0,29.26,North,350,2.0,8.0,34,0.00,,,0.00,weatherlink.com 1.10,2013-04-03 19:05:00,
2013-04-03 15:11:00,58.4,27.9,29.25,North,5,3.0,8.0,31,0.00,,,0.00,Wunderground v.1.15,2013-04-03 19:11:00,
2013-04-03 15:20:00,58.2,30.0,29.25,NW,312,2.0,9.0,34,0.00,,,0.00,weatherlink.com 1.10,2013-04-03 19:20:00,
2013-04-03 15:26:00,58.1,28.4,29.25,NE,40,4.0,4.0,32,0.00,,,0.00,Wunderground v.1.15,2013-04-03 19:26:00,
2013-04-03 15:36:00,57.7,28.0,29.25,North,355,3.0,8.0,32,0.00,,,0.00,weatherlink.com 1.10,2013-04-03 19:36:00,
2013-04-03 15:41:00,57.7,28.0,29.25,NNE,26,4.0,8.0,32,0.00,,,0.00,Wunderground v.1.15,2013-04-03 19:41:00,
2013-04-03 15:50:00,57.8,29.0,29.25,North,349,5.0,7.0,34,0.00,,,0.00,weatherlink.com 1.10,2013-04-03 19:50:00,
2013-04-03 15:56:00,57.8,29.6,29.24,North,9,3.0,6.0,34,0.00,,,0.00,Wunderground v.1.15,2013-04-03 19:56:00,
2013-04-03 16:06:00,57.7,29.5,29.24,NNE,19,4.0,4.0,34,0.00,,,0.00,Wunderground v.1.15,2013-04-03 20:06:00,
2013-04-03 16:16:00,57.8,29.6,29.24,NW,319,3.0,4.0,34,0.00,,,0.00,Wunderground v.1.15,2013-04-03 20:16:00,
2013-04-03 16:22:00,57.9,30.0,29.24,North,355,2.0,11.0,35,0.00,,,0.00,weatherlink.com 1.10,2013-04-03 20:22:00,
2013-04-03 16:35:00,57.9,29.0,29.24,NW,314,4.0,6.0,33,0.00,,,0.00,weatherlink.com 1.10,2013-04-03 20:35:00,
2013-04-03 16:45:00,57.7,28.8,29.23,NNW,344,4.0,11.0,33,0.00,,,0.00,Wunderground v.1.15,2013-04-03 20:45:00,
2013-04-03 16:55:00,57.4,29.9,29.23,North,355,4.0,9.0,35,0.00,,,0.00,Wunderground v.1.15,2013-04-03 20:55:00,
2013-04-03 17:00:00,57.3,29.9,29.23,North,5,4.0,4.0,35,0.00,,,0.00,Wunderground v.1.15,2013-04-03 21:00:00,
2013-04-03 17:06:00,57.3,30.0,29.23,NE,36,2.0,8.0,36,0.00,,,0.00,weatherlink.com 1.10,2013-04-03 21:06:00,
2013-04-03 17:14:00,57.2,29.1,29.23,NE,56,3.0,6.0,34,0.00,,,0.00,Wunderground v.1.15,2013-04-03 21:14:00,
2013-04-03 17:20:00,57.2,30.0,29.23,WNW,287,1.0,10.0,35,0.00,,,0.00,weatherlink.com 1.10,2013-04-03 21:20:00,
2013-04-03 17:29:00,57.1,29.7,29.22,NE,54,3.0,3.0,35,0.00,,,0.00,Wunderground v.1.15,2013-04-03 21:29:00,
2013-04-03 17:35:00,57.1,28.0,29.22,NE,38,4.0,9.0,33,0.00,,,0.00,weatherlink.com 1.10,2013-04-03 21:35:00,
2013-04-03 17:45:00,57.0,28.9,29.22,ESE,111,3.0,11.0,34,0.00,,,0.00,Wunderground v.1.15,2013-04-03 21:45:00,
2013-04-03 17:50:00,57.0,29.0,29.22,WNW,292,5.0,8.0,34,0.00,,,0.00,weatherlink.com 1.10,2013-04-03 21:50:00,
2013-04-03 18:00:00,56.9,28.8,29.21,NW,323,3.0,3.0,34,0.00,,,0.00,Wunderground v.1.15,2013-04-03 22:00:00,
2013-04-03 18:06:00,56.8,29.0,29.21,NNE,32,3.0,8.0,35,0.00,,,0.00,weatherlink.com 1.10,2013-04-03 22:06:00,
2013-04-03 18:14:00,56.6,27.8,29.20,North,360,3.0,8.0,33,0.00,,,0.00,Wunderground v.1.15,2013-04-03 22:14:00,
2013-04-03 18:24:00,56.2,26.7,29.20,NW,321,4.0,5.0,32,0.00,,,0.00,Wunderground v.1.15,2013-04-03 22:24:00,
2013-04-03 18:34:00,55.8,27.8,29.19,NW,311,4.0,10.0,34,0.00,,,0.00,Wunderground v.1.15,2013-04-03 22:34:00,
2013-04-03 18:44:00,55.6,28.4,29.20,NNE,25,2.0,4.0,35,0.00,,,0.00,Wunderground v.1.15,2013-04-03 22:44:00,
2013-04-03 18:51:00,55.5,27.0,29.20,NNW,346,3.0,8.0,34,0.00,,,0.00,weatherlink.com 1.10,2013-04-03 22:51:00,
2013-04-03 19:00:00,55.4,26.7,29.20,NE,46,3.0,4.0,33,0.00,,,0.00,Wunderground v.1.15,2013-04-03 23:00:00,
2013-04-03 19:06:00,55.4,27.0,29.20,NW,317,3.0,12.0,34,0.00,,,0.00,weatherlink.com 1.10,2013-04-03 23:06:00,
2013-04-03 19:14:00,55.3,27.4,29.20,NNE,24,3.0,4.0,34,0.00,,,0.00,Wunderground v.1.15,2013-04-03 23:14:00,
2013-04-03 19:21:00,55.1,27.0,29.21,NNW,347,3.0,7.0,34,0.00,,,0.00,weatherlink.com 1.10,2013-04-03 23:21:00,
2013-04-03 19:29:00,55.0,27.8,29.21,NE,34,3.0,3.0,35,0.00,,,0.00,Wunderground v.1.15,2013-04-03 23:29:00,
2013-04-03 19:36:00,54.9,27.0,29.21,North,355,3.0,12.0,34,0.00,,,0.00,weatherlink.com 1.10,2013-04-03 23:36:00,
2013-04-03 19:44:00,54.7,27.6,29.20,North,350,3.0,12.0,35,0.00,,,0.00,Wunderground v.1.15,2013-04-03 23:44:00,
2013-04-03 19:51:00,54.6,27.0,29.20,North,355,4.0,10.0,35,0.00,,,0.00,weatherlink.com 1.10,2013-04-03 23:51:00,
2013-04-03 19:59:00,54.4,28.6,29.20,NW,321,3.0,3.0,37,0.00,,,0.00,Wunderground v.1.15,2013-04-03 23:59:00,
2013-04-03 20:09:00,54.2,27.1,29.21,NNW,327,3.0,5.0,35,0.00,,,0.00,Wunderground v.1.15,2013-04-04 00:09:00,
2013-04-03 20:14:00,54.2,27.1,29.21,West,260,2.0,5.0,35,0.00,,,0.00,Wunderground v.1.15,2013-04-04 00:14:00,
2013-04-03 20:24:00,54.0,27.6,29.21,North,5,3.0,3.0,36,0.00,,,0.00,Wunderground v.1.15,2013-04-04 00:24:00,
2013-04-03 20:34:00,53.9,26.8,29.22,NNW,336,2.0,12.0,35,0.00,,,0.00,Wunderground v.1.15,2013-04-04 00:34:00,
2013-04-03 20:49:00,53.8,28.1,29.22,North,360,2.0,2.0,37,0.00,,,0.00,Wunderground v.1.15,2013-04-04 00:49:00,
2013-04-03 20:54:00,53.8,28.1,29.22,WNW,295,2.0,3.0,37,0.00,,,0.00,Wunderground v.1.15,2013-04-04 00:54:00,
2013-04-03 20:59:00,53.7,27.4,29.22,NE,38,2.0,2.0,36,0.00,,,0.00,Wunderground v.1.15,2013-04-04 00:59:00,
2013-04-03 21:07:00,53.6,27.0,29.22,NNW,334,1.0,9.0,36,0.00,,,0.00,weatherlink.com 1.10,2013-04-04 01:07:00,
2013-04-03 21:14:00,53.5,27.2,29.22,North,11,2.0,2.0,36,0.00,,,0.00,Wunderground v.1.15,2013-04-04 01:14:00,
2013-04-03 21:22:00,53.3,27.0,29.22,NNW,344,3.0,4.0,37,0.00,,,0.00,weatherlink.com 1.10,2013-04-04 01:22:00,
2013-04-03 21:34:00,53.1,28.8,29.22,North,355,1.0,11.0,39,0.00,,,0.00,Wunderground v.1.15,2013-04-04 01:34:00,
2013-04-03 21:43:00,52.9,28.0,29.23,NNE,26,1.0,11.0,38,0.00,,,0.00,Wunderground v.1.15,2013-04-04 01:43:00,
2013-04-03 21:49:00,52.8,27.9,29.23,NNE,26,1.0,11.0,38,0.00,,,0.00,Wunderground v.1.15,2013-04-04 01:49:00,
2013-04-03 21:59:00,52.6,28.9,29.23,East,98,1.0,1.0,40,0.00,,,0.00,Wunderground v.1.15,2013-04-04 01:59:00,
2013-04-03 22:07:00,52.6,29.0,29.22,ENE,78,2.0,7.0,40,0.00,,,0.00,weatherlink.com 1.10,2013-04-04 02:07:00,
2013-04-03 22:22:00,52.6,27.0,29.22,ENE,64,1.0,5.0,38,0.00,,,0.00,weatherlink.com 1.10,2013-04-04 02:22:00,
2013-04-03 22:28:00,52.5,29.5,29.22,ENE,67,1.0,2.0,41,0.00,,,0.00,Wunderground v.1.15,2013-04-04 02:28:00,
2013-04-03 22:36:00,52.4,28.0,29.22,North,5,1.0,7.0,39,0.00,,,0.00,weatherlink.com 1.10,2013-04-04 02:36:00,
2013-04-03 22:43:00,52.5,27.6,29.22,East,90,2.0,7.0,38,0.00,,,0.00,Wunderground v.1.15,2013-04-04 02:43:00,
2013-04-03 22:51:00,52.5,28.0,29.22,NE,52,2.0,3.0,39,0.00,,,0.00,weatherlink.com 1.10,2013-04-04 02:51:00,
2013-04-03 22:59:00,52.4,27.5,29.22,ENE,63,1.0,2.0,38,0.00,,,0.00,Wunderground v.1.15,2013-04-04 02:59:00,
2013-04-03 23:07:00,52.3,28.0,29.22,NE,55,1.0,5.0,39,0.00,,,0.00,weatherlink.com 1.10,2013-04-04 03:07:00,
2013-04-03 23:13:00,52.3,28.1,29.22,ENE,72,1.0,2.0,39,0.00,,,0.00,Wunderground v.1.15,2013-04-04 03:13:00,
2013-04-03 23:18:00,52.2,27.3,29.22,ENE,66,2.0,2.0,38,0.00,,,0.00,Wunderground v.1.15,2013-04-04 03:18:00,
2013-04-03 23:28:00,52.2,28.6,29.22,ENE,61,1.0,2.0,40,0.00,,,0.00,Wunderground v.1.15,2013-04-04 03:28:00,
2013-04-03 23:37:00,52.1,28.0,29.21,East,96,1.0,4.0,40,0.00,,,0.00,weatherlink.com 1.10,2013-04-04 03:37:00,
2013-04-03 23:43:00,52.0,29.0,29.21,SE,142,1.0,5.0,41,0.00,,,0.00,Wunderground v.1.15,2013-04-04 03:43:00,
2013-04-03 23:52:00,51.8,30.0,29.21,SE,142,1.0,2.0,43,0.00,,,0.00,weatherlink.com 1.10,2013-04-04 03:52:00,